createdAt,value
2019-02-26T00:00:42.325Z,3.00
2019-02-26T00:03:08.359Z,2.90
2019-02-26T00:05:35.852Z,2.90
2019-02-26T00:08:03.917Z,2.90
2019-02-26T00:10:33.581Z,2.90
2019-02-26T00:13:00.813Z,2.90
2019-02-26T00:15:31.274Z,2.80
2019-02-26T00:17:57.650Z,2.80
2019-02-26T00:20:25.063Z,2.80
2019-02-26T00:22:53.530Z,2.80
2019-02-26T00:25:21.474Z,2.80
2019-02-26T00:27:49.574Z,2.80
2019-02-26T00:30:18.623Z,2.70
2019-02-26T00:32:46.356Z,2.70
2019-02-26T00:35:13.810Z,2.60
2019-02-26T00:37:41.235Z,2.60
2019-02-26T00:40:10.127Z,2.60
2019-02-26T00:42:38.383Z,2.60
2019-02-26T00:45:07.903Z,2.50
2019-02-26T00:47:36.341Z,2.50
2019-02-26T00:50:07.376Z,2.40
2019-02-26T00:52:37.031Z,2.40
2019-02-26T00:55:07.029Z,2.40
2019-02-26T00:57:36.602Z,2.40
2019-02-26T01:00:07.602Z,2.30
2019-02-26T01:02:35.324Z,2.30
2019-02-26T01:05:04.122Z,2.30
2019-02-26T01:07:32.564Z,2.30
2019-02-26T01:10:00.165Z,2.20
2019-02-26T01:12:27.631Z,2.20
2019-02-26T01:14:55.268Z,2.30
2019-02-26T01:17:22.821Z,2.20
2019-02-26T01:19:50.105Z,2.20
2019-02-26T01:22:17.530Z,2.20
2019-02-26T01:24:44.726Z,2.20
2019-02-26T01:27:12.048Z,2.20
2019-02-26T01:29:39.335Z,2.10
2019-02-26T01:32:08.857Z,2.10
2019-02-26T01:34:35.882Z,2.10
2019-02-26T01:37:05.502Z,2.10
2019-02-26T01:39:32.704Z,2.10
2019-02-26T01:41:59.909Z,2.10
2019-02-26T01:44:30.153Z,2.00
2019-02-26T01:46:58.273Z,2.00
2019-02-26T01:49:26.689Z,2.00
2019-02-26T01:51:54.831Z,1.90
2019-02-26T01:54:22.028Z,1.90
2019-02-26T01:56:50.913Z,1.90
2019-02-26T01:59:19.182Z,1.90
2019-02-26T02:01:48.581Z,1.90
2019-02-26T02:04:17.146Z,1.90
2019-02-26T02:06:45.143Z,1.90
2019-02-26T02:09:14.136Z,1.90
2019-02-26T02:11:42.212Z,1.90
2019-02-26T02:14:10.361Z,1.90
2019-02-26T02:16:38.839Z,1.90
2019-02-26T02:19:06.283Z,1.80
2019-02-26T02:21:35.974Z,1.80
2019-02-26T02:24:05.754Z,1.80
2019-02-26T02:26:32.643Z,1.80
2019-02-26T02:29:00.102Z,1.80
2019-02-26T02:31:31.190Z,1.70
2019-02-26T02:33:56.515Z,1.70
2019-02-26T02:36:26.445Z,1.60
2019-02-26T02:38:53.084Z,1.60
2019-02-26T02:41:20.655Z,1.60
2019-02-26T02:43:48.045Z,1.70
2019-02-26T02:46:15.420Z,1.60
2019-02-26T02:48:42.954Z,1.50
2019-02-26T02:51:13.472Z,1.50
2019-02-26T02:53:39.610Z,1.50
2019-02-26T02:56:09.844Z,1.50
2019-02-26T02:58:38.438Z,1.50
2019-02-26T03:01:05.768Z,1.50
2019-02-26T03:03:33.260Z,1.50
2019-02-26T03:06:01.978Z,1.50
2019-02-26T03:08:29.769Z,1.50
2019-02-26T03:10:57.039Z,1.50
2019-02-26T03:13:25.442Z,1.50
2019-02-26T03:15:56.186Z,1.50
2019-02-26T03:18:23.056Z,1.50
2019-02-26T03:20:51.406Z,1.40
2019-02-26T03:23:20.294Z,1.40
2019-02-26T03:25:49.821Z,1.30
2019-02-26T03:28:16.971Z,1.30
2019-02-26T03:30:44.778Z,1.30
2019-02-26T03:33:12.260Z,1.20
2019-02-26T03:35:39.626Z,1.20
2019-02-26T03:38:07.133Z,1.20
2019-02-26T03:40:36.129Z,1.20
2019-02-26T03:43:05.464Z,1.20
2019-02-26T03:45:33.192Z,1.10
2019-02-26T03:48:00.387Z,1.10
2019-02-26T03:50:27.796Z,1.10
2019-02-26T03:52:55.251Z,1.10
2019-02-26T03:55:22.680Z,1.10
2019-02-26T03:57:53.352Z,1.10
2019-02-26T04:00:20.336Z,1.10
2019-02-26T04:02:51.052Z,1.10
2019-02-26T04:05:17.663Z,1.10
2019-02-26T04:07:45.219Z,1.10
2019-02-26T04:10:12.961Z,1.10
2019-02-26T04:12:42.332Z,1.10
2019-02-26T04:15:12.182Z,1.10
2019-02-26T04:17:42.196Z,1.10
2019-02-26T04:20:09.964Z,1.10
2019-02-26T04:22:42.311Z,1.10
2019-02-26T04:25:38.203Z,1.10
2019-02-26T04:28:32.968Z,1.10
2019-02-26T04:31:24.369Z,1.00
2019-02-26T04:34:23.272Z,1.00
2019-02-26T04:37:55.812Z,1.00
2019-02-26T04:41:36.494Z,1.00
2019-02-26T04:45:09.799Z,1.00
2019-02-26T04:47:37.119Z,0.90
2019-02-26T04:50:06.273Z,0.90
2019-02-26T04:52:35.787Z,0.90
2019-02-26T04:55:03.395Z,0.90
2019-02-26T04:57:30.811Z,0.90
2019-02-26T05:00:00.681Z,0.90
2019-02-26T05:02:27.806Z,0.90
2019-02-26T05:04:55.226Z,0.90
2019-02-26T05:07:22.499Z,0.90
2019-02-26T05:09:52.888Z,0.80
2019-02-26T05:12:19.401Z,0.80
2019-02-26T05:14:46.793Z,0.80
2019-02-26T05:17:14.193Z,0.90
2019-02-26T05:19:45.368Z,0.80
2019-02-26T05:22:10.768Z,0.80
2019-02-26T05:24:41.405Z,0.80
2019-02-26T05:27:15.609Z,0.80
2019-02-26T05:29:46.596Z,0.80
2019-02-26T05:32:13.244Z,0.80
2019-02-26T05:34:42.857Z,0.70
2019-02-26T05:37:11.225Z,0.70
2019-02-26T05:39:40.647Z,0.70
2019-02-26T05:42:08.370Z,0.70
2019-02-26T05:44:35.802Z,0.70
2019-02-26T05:47:03.309Z,0.70
2019-02-26T05:49:32.197Z,0.70
2019-02-26T05:52:01.740Z,0.70
2019-02-26T05:54:28.826Z,0.70
2019-02-26T05:56:56.267Z,0.70
2019-02-26T05:59:23.671Z,0.70
2019-02-26T06:01:53.330Z,0.70
2019-02-26T06:04:20.777Z,0.70
2019-02-26T06:06:50.244Z,0.60
2019-02-26T06:09:19.495Z,0.60
2019-02-26T06:11:49.855Z,0.60
2019-02-26T06:14:15.765Z,0.60
2019-02-26T06:16:45.500Z,0.60
2019-02-26T06:19:13.918Z,0.60
2019-02-26T06:21:44.706Z,0.70
2019-02-26T06:24:12.895Z,0.70
2019-02-26T06:26:41.331Z,0.70
2019-02-26T06:29:09.682Z,0.70
2019-02-26T06:31:39.405Z,0.80
2019-02-26T06:34:08.758Z,0.80
2019-02-26T06:36:35.563Z,0.90
2019-02-26T06:39:05.904Z,0.90
2019-02-26T06:41:33.451Z,0.90
2019-02-26T06:44:00.755Z,0.90
2019-02-26T06:46:29.350Z,0.90
2019-02-26T06:48:57.280Z,1.00
2019-02-26T06:51:26.094Z,1.00
2019-02-26T06:53:54.916Z,1.00
2019-02-26T06:56:30.247Z,1.10
2019-02-26T06:59:09.725Z,1.10
2019-02-26T07:01:37.960Z,1.10
2019-02-26T07:04:06.324Z,1.20
2019-02-26T07:06:34.909Z,1.30
2019-02-26T07:09:02.512Z,1.40
2019-02-26T07:11:31.443Z,1.40
2019-02-26T07:14:01.319Z,1.50
2019-02-26T07:16:28.164Z,1.60
2019-02-26T07:18:55.397Z,1.60
2019-02-26T07:21:22.593Z,1.70
2019-02-26T07:23:56.428Z,1.80
2019-02-26T07:26:24.213Z,1.90
2019-02-26T07:28:51.460Z,2.00
2019-02-26T07:31:18.874Z,2.10
2019-02-26T07:33:46.327Z,2.20
2019-02-26T07:36:13.641Z,2.30
2019-02-26T07:38:42.316Z,2.50
2019-02-26T07:41:09.957Z,2.60
2019-02-26T07:43:41.097Z,2.70
2019-02-26T07:46:06.592Z,2.80
2019-02-26T07:48:33.834Z,3.00
2019-02-26T07:51:01.061Z,3.10
2019-02-26T07:53:28.373Z,3.30
2019-02-26T07:55:56.872Z,3.40
2019-02-26T07:58:24.999Z,3.60
2019-02-26T08:00:52.481Z,3.70
2019-02-26T08:03:21.859Z,3.90
2019-02-26T08:05:49.152Z,4.10
2019-02-26T08:08:18.364Z,4.20
2019-02-26T08:10:48.402Z,4.40
2019-02-26T08:13:15.193Z,4.50
2019-02-26T08:15:42.637Z,4.60
2019-02-26T08:18:09.997Z,4.80
2019-02-26T08:20:38.433Z,4.90
2019-02-26T08:23:06.615Z,5.10
2019-02-26T08:25:34.209Z,5.20
2019-02-26T08:28:01.729Z,5.40
2019-02-26T08:30:29.466Z,5.50
2019-02-26T08:32:58.901Z,5.70
2019-02-26T08:35:26.125Z,5.90
2019-02-26T08:37:53.956Z,6.00
2019-02-26T08:40:21.512Z,6.10
2019-02-26T08:42:48.905Z,6.20
2019-02-26T08:45:20.175Z,6.40
2019-02-26T08:47:47.111Z,6.60
2019-02-26T08:50:15.041Z,6.80
2019-02-26T08:52:44.264Z,6.90
2019-02-26T08:55:13.094Z,7.10
2019-02-26T08:57:41.485Z,7.30
2019-02-26T09:00:13.717Z,7.50
2019-02-26T09:02:41.866Z,7.70
2019-02-26T09:05:11.915Z,7.90
2019-02-26T09:07:40.478Z,8.10
2019-02-26T09:10:12.085Z,8.30
2019-02-26T09:12:41.348Z,8.40
2019-02-26T09:15:11.458Z,8.50
2019-02-26T09:17:41.346Z,8.70
2019-02-26T09:20:12.865Z,8.80
2019-02-26T09:22:45.708Z,8.90
2019-02-26T09:25:11.861Z,9.00
2019-02-26T09:27:42.833Z,9.10
2019-02-26T09:30:14.012Z,9.20
2019-02-26T09:32:44.594Z,9.50
2019-02-26T09:35:12.921Z,9.70
2019-02-26T09:37:40.447Z,9.90
2019-02-26T09:40:10.662Z,10.10
2019-02-26T09:42:38.099Z,10.30
2019-02-26T09:45:08.864Z,10.30
2019-02-26T09:47:36.333Z,10.50
2019-02-26T09:50:04.964Z,10.60
2019-02-26T09:52:32.758Z,10.60
2019-02-26T09:55:00.381Z,10.70
2019-02-26T09:57:28.231Z,10.80
2019-02-26T09:59:58.169Z,10.90
2019-02-26T10:02:26.505Z,11.00
2019-02-26T10:04:54.814Z,11.10
2019-02-26T10:07:22.250Z,11.20
2019-02-26T10:09:49.581Z,11.30
2019-02-26T10:12:17.412Z,11.40
2019-02-26T10:14:44.926Z,11.50
2019-02-26T10:17:14.104Z,11.70
2019-02-26T10:19:42.986Z,11.80
2019-02-26T10:22:13.514Z,11.90
2019-02-26T10:24:40.620Z,12.00
2019-02-26T10:27:09.393Z,12.10
2019-02-26T10:29:39.871Z,12.20
2019-02-26T10:32:11.227Z,12.40
2019-02-26T10:34:36.341Z,12.50
2019-02-26T10:37:03.923Z,12.70
2019-02-26T10:39:32.236Z,12.80
2019-02-26T10:42:02.116Z,13.00
2019-02-26T10:44:29.361Z,13.10
2019-02-26T10:46:58.341Z,13.30
2019-02-26T10:49:26.157Z,13.40
2019-02-26T10:51:55.602Z,13.50
2019-02-26T10:54:23.002Z,13.60
2019-02-26T10:56:50.558Z,13.70
2019-02-26T10:59:19.591Z,13.80
2019-02-26T11:01:49.616Z,13.80
2019-02-26T11:04:16.702Z,14.00
2019-02-26T11:06:46.178Z,14.00
2019-02-26T11:09:17.385Z,14.10
2019-02-26T11:11:42.925Z,14.20
2019-02-26T11:14:13.320Z,14.30
2019-02-26T11:16:39.924Z,14.30
2019-02-26T11:19:09.372Z,14.60
2019-02-26T11:21:36.938Z,14.60
2019-02-26T11:24:06.130Z,14.60
2019-02-26T11:26:35.963Z,14.70
2019-02-26T11:29:02.986Z,14.70
2019-02-26T11:31:30.421Z,14.90
2019-02-26T11:34:01.896Z,15.00
2019-02-26T11:36:28.102Z,15.00
2019-02-26T11:38:56.494Z,15.00
2019-02-26T11:41:26.233Z,15.20
2019-02-26T11:43:53.328Z,15.20
2019-02-26T11:46:22.661Z,15.30
2019-02-26T11:48:52.005Z,15.40
2019-02-26T11:51:20.060Z,15.40
2019-02-26T11:53:47.391Z,15.50
2019-02-26T11:56:15.870Z,15.50
2019-02-26T11:58:44.160Z,15.50
2019-02-26T12:01:13.663Z,15.70
2019-02-26T12:03:42.304Z,15.70
2019-02-26T12:06:10.446Z,15.70
2019-02-26T12:08:39.666Z,15.70
2019-02-26T12:11:12.402Z,15.80
2019-02-26T12:13:39.627Z,15.80
2019-02-26T12:16:07.069Z,15.90
2019-02-26T12:18:36.741Z,16.00
2019-02-26T12:21:05.969Z,16.00
2019-02-26T12:23:34.472Z,16.00
2019-02-26T12:26:03.945Z,16.00
2019-02-26T12:28:32.418Z,16.00
2019-02-26T12:31:02.279Z,16.00
2019-02-26T12:33:32.480Z,16.10
2019-02-26T12:36:01.974Z,16.10
2019-02-26T12:38:29.258Z,16.10
2019-02-26T12:40:56.792Z,16.10
2019-02-26T12:43:24.367Z,16.20
2019-02-26T12:45:54.943Z,16.20
2019-02-26T12:48:22.738Z,16.20
2019-02-26T12:50:52.231Z,16.30
2019-02-26T12:53:20.726Z,16.40
2019-02-26T12:55:49.204Z,16.40
2019-02-26T12:58:18.703Z,16.40
2019-02-26T13:00:46.113Z,16.40
2019-02-26T13:03:15.898Z,16.40
2019-02-26T13:05:45.678Z,16.50
2019-02-26T13:08:15.971Z,16.60
2019-02-26T13:10:43.552Z,16.60
2019-02-26T13:13:11.508Z,16.60
2019-02-26T13:15:39.076Z,16.60
2019-02-26T13:18:06.834Z,16.60
2019-02-26T13:20:34.286Z,16.70
2019-02-26T13:23:16.407Z,16.80
2019-02-26T13:25:31.088Z,16.70
2019-02-26T13:27:58.550Z,16.60
2019-02-26T13:30:26.073Z,16.70
2019-02-26T13:32:57.354Z,16.60
2019-02-26T13:35:23.292Z,16.80
2019-02-26T13:37:50.932Z,16.80
2019-02-26T13:40:19.526Z,16.70
2019-02-26T13:42:50.261Z,16.80
2019-02-26T13:45:18.746Z,16.80
2019-02-26T13:47:46.412Z,16.80
2019-02-26T13:50:19.712Z,16.80
2019-02-26T13:52:47.063Z,16.80
2019-02-26T13:55:14.643Z,16.80
2019-02-26T13:57:42.151Z,16.90
2019-02-26T14:00:11.153Z,16.90
2019-02-26T14:02:38.617Z,17.00
2019-02-26T14:05:07.420Z,17.00
2019-02-26T14:07:35.050Z,17.00
2019-02-26T14:10:02.854Z,17.10
2019-02-26T14:12:30.406Z,17.10
2019-02-26T14:14:57.947Z,17.20
2019-02-26T14:17:25.447Z,17.30
2019-02-26T14:19:52.845Z,17.30
2019-02-26T14:22:20.724Z,17.30
2019-02-26T14:24:47.960Z,17.20
2019-02-26T14:27:15.316Z,17.10
2019-02-26T14:29:42.835Z,17.10
2019-02-26T14:32:10.111Z,17.10
2019-02-26T14:34:37.746Z,17.20
2019-02-26T14:37:05.340Z,17.30
2019-02-26T14:39:32.779Z,17.30
2019-02-26T14:42:01.083Z,17.20
2019-02-26T14:44:28.531Z,17.30
2019-02-26T14:46:56.091Z,17.40
2019-02-26T14:49:23.472Z,17.50
2019-02-26T14:51:50.799Z,17.50
2019-02-26T14:54:18.382Z,17.60
2019-02-26T14:56:45.849Z,17.50
2019-02-26T14:59:13.426Z,17.60
2019-02-26T15:01:41.043Z,17.50
2019-02-26T15:04:08.490Z,17.50
2019-02-26T15:06:35.714Z,17.60
2019-02-26T15:09:04.670Z,17.60
2019-02-26T15:11:32.208Z,17.60
2019-02-26T15:14:00.368Z,17.50
2019-02-26T15:16:27.945Z,17.50
2019-02-26T15:18:55.466Z,17.50
2019-02-26T15:21:22.892Z,17.50
2019-02-26T15:23:50.420Z,17.40
2019-02-26T15:26:17.927Z,17.30
2019-02-26T15:28:45.371Z,17.30
2019-02-26T15:31:12.872Z,17.20
2019-02-26T15:33:40.426Z,17.10
2019-02-26T15:36:07.885Z,17.00
2019-02-26T15:38:35.374Z,16.90
2019-02-26T15:41:03.278Z,16.90
2019-02-26T15:43:30.622Z,16.80
2019-02-26T15:45:59.790Z,16.70
2019-02-26T15:48:27.420Z,16.60
2019-02-26T15:50:54.855Z,16.60
2019-02-26T15:53:23.772Z,16.40
2019-02-26T15:55:51.523Z,16.30
2019-02-26T15:58:19.003Z,16.30
2019-02-26T16:00:46.552Z,16.20
2019-02-26T16:03:13.977Z,16.10
2019-02-26T16:05:41.549Z,16.10
2019-02-26T16:08:08.764Z,16.00
2019-02-26T16:10:36.306Z,15.90
2019-02-26T16:13:03.920Z,15.80
2019-02-26T16:15:33.065Z,15.70
2019-02-26T16:18:00.507Z,15.60
2019-02-26T16:20:28.272Z,15.50
2019-02-26T16:22:55.715Z,15.40
2019-02-26T16:25:23.058Z,15.30
2019-02-26T16:27:51.681Z,15.30
2019-02-26T16:30:20.351Z,15.20
2019-02-26T16:32:48.949Z,15.10
2019-02-26T16:35:16.910Z,15.00
2019-02-26T16:37:44.429Z,14.80
2019-02-26T16:40:12.091Z,14.70
2019-02-26T16:42:39.579Z,14.60
2019-02-26T16:45:11.961Z,14.40
2019-02-26T16:47:39.393Z,14.40
2019-02-26T16:50:13.245Z,14.20
2019-02-26T16:52:39.563Z,14.20
2019-02-26T16:55:08.403Z,14.00
2019-02-26T16:57:35.941Z,13.90
2019-02-26T17:00:05.394Z,13.80
2019-02-26T17:02:32.980Z,13.60
2019-02-26T17:05:00.562Z,13.40
2019-02-26T17:07:28.001Z,13.30
2019-02-26T17:09:56.243Z,13.10
2019-02-26T17:12:24.365Z,13.00
2019-02-26T17:14:52.865Z,12.80
2019-02-26T17:17:20.332Z,12.60
2019-02-26T17:19:48.975Z,12.50
2019-02-26T17:22:16.825Z,12.30
2019-02-26T17:24:44.181Z,12.20
2019-02-26T17:27:11.817Z,12.00
2019-02-26T17:29:39.081Z,11.80
2019-02-26T17:32:06.590Z,11.70
2019-02-26T17:34:33.946Z,11.60
2019-02-26T17:37:02.057Z,11.40
2019-02-26T17:39:30.591Z,11.30
2019-02-26T17:41:59.895Z,11.20
2019-02-26T17:44:27.606Z,11.00
2019-02-26T17:46:55.086Z,10.90
2019-02-26T17:49:22.263Z,10.70
2019-02-26T17:51:49.780Z,10.60
2019-02-26T17:54:17.429Z,10.50
2019-02-26T17:56:44.966Z,10.40
2019-02-26T17:59:16.368Z,10.30
2019-02-26T18:01:48.048Z,10.20
2019-02-26T18:04:15.702Z,10.10
2019-02-26T18:06:43.387Z,10.00
2019-02-26T18:09:11.097Z,10.00
2019-02-26T18:11:39.382Z,9.90
2019-02-26T19:54:55.891Z,6.90
2019-02-26T19:57:27.572Z,6.80
2019-02-26T19:59:58.069Z,6.80
2019-02-26T20:02:31.322Z,6.80
2019-02-26T20:05:00.434Z,6.80
2019-02-26T20:07:32.596Z,6.80
2019-02-26T20:10:02.741Z,6.80
2019-02-26T20:15:21.924Z,6.80
2019-02-26T20:17:52.751Z,6.80
2019-02-26T20:20:23.252Z,6.80
2019-02-26T20:22:53.457Z,7.00
2019-02-26T20:25:23.941Z,7.00
2019-02-26T20:27:55.555Z,6.90
2019-02-26T20:30:26.533Z,6.80
2019-02-26T20:32:56.874Z,6.70
2019-02-26T20:35:26.997Z,6.60
2019-02-26T20:37:58.819Z,6.50
2019-02-26T20:40:29.686Z,6.40
2019-02-26T20:43:01.820Z,6.30
2019-02-26T20:45:31.985Z,6.30
2019-02-26T20:48:04.317Z,6.20
2019-02-26T20:50:34.305Z,6.20
2019-02-26T20:53:05.927Z,6.10
2019-02-26T20:55:36.845Z,6.00
2019-02-26T20:58:07.137Z,6.00
2019-02-26T21:03:40.464Z,5.90
2019-02-26T21:06:10.723Z,5.80
2019-02-26T21:08:40.948Z,5.80
2019-02-26T21:11:11.244Z,5.70
2019-02-26T21:13:41.580Z,5.70
2019-02-26T21:16:11.866Z,5.70
2019-02-26T21:18:42.315Z,5.70
2019-02-26T21:21:14.079Z,5.60
2019-02-26T21:23:44.798Z,5.70
2019-02-26T21:26:15.024Z,5.70
2019-02-26T21:28:45.254Z,5.80
2019-02-26T21:31:16.686Z,5.90
2019-02-26T21:33:47.644Z,5.90
2019-02-26T21:36:17.917Z,5.80
2019-02-26T21:38:48.188Z,5.70
2019-02-26T21:41:18.399Z,5.60
2019-02-26T21:43:48.762Z,5.50
2019-02-26T21:46:22.537Z,5.40
2019-02-26T21:48:51.677Z,5.30
2019-02-26T21:51:21.998Z,5.20
2019-02-26T21:53:52.318Z,5.10
2019-02-26T21:56:22.692Z,5.00
2019-02-26T21:58:53.096Z,5.00
2019-02-26T22:01:23.368Z,4.90
2019-02-26T22:03:55.768Z,4.90
2019-02-26T22:06:25.545Z,4.90
2019-02-26T22:08:57.073Z,4.80
2019-02-26T22:11:27.885Z,4.70
2019-02-26T22:13:59.969Z,4.70
2019-02-26T22:16:30.055Z,4.70
2019-02-26T22:19:00.241Z,4.70
2019-02-26T22:21:31.388Z,4.70
2019-02-26T22:24:01.633Z,4.70
2019-02-26T22:26:31.706Z,4.60
2019-02-26T22:29:01.842Z,4.60
2019-02-26T22:31:32.200Z,4.60
2019-02-26T22:34:02.438Z,4.60
2019-02-26T22:36:33.296Z,4.50
2019-02-26T22:39:07.519Z,4.50
2019-02-26T22:41:37.967Z,4.40
2019-02-26T22:44:08.171Z,4.40
2019-02-26T22:46:39.585Z,4.30
2019-02-26T22:49:09.893Z,4.20
2019-02-26T22:51:40.109Z,4.10
2019-02-26T22:54:10.440Z,4.20
2019-02-26T22:56:40.663Z,4.20
2019-02-26T22:59:10.918Z,4.10
2019-02-26T23:01:43.656Z,4.10
2019-02-26T23:04:14.032Z,4.00
2019-02-26T23:06:44.415Z,4.00
2019-02-26T23:09:21.458Z,4.00
2019-02-26T23:11:52.243Z,4.00
2019-02-26T23:14:23.282Z,4.00
2019-02-26T23:16:53.625Z,4.00
2019-02-26T23:19:24.106Z,3.90
2019-02-26T23:21:54.543Z,3.90
2019-02-26T23:24:27.710Z,3.90
2019-02-26T23:26:57.360Z,3.80
2019-02-26T23:29:28.543Z,3.80
2019-02-26T23:31:59.177Z,3.80
2019-02-26T23:34:29.461Z,3.80
2019-02-26T23:37:00.931Z,3.80
2019-02-26T23:39:31.877Z,3.70
2019-02-26T23:42:05.813Z,3.70
2019-02-26T23:44:34.492Z,3.60
2019-02-26T23:47:04.796Z,3.50
2019-02-26T23:49:35.029Z,3.50
2019-02-26T23:52:05.250Z,3.50
2019-02-26T23:54:39.770Z,3.40
2019-02-26T23:57:07.526Z,3.40
2019-02-26T23:59:38.245Z,3.40
